createdAt,value
2023-04-15T00:01:43.295Z,97456.14
2023-04-15T00:06:53.058Z,97461.20
2023-04-15T00:11:54.862Z,97463.66
2023-04-15T00:16:57.403Z,97468.31
2023-04-15T00:22:00.757Z,97472.98
2023-04-15T00:27:02.459Z,97476.64
2023-04-15T00:32:04.452Z,97481.98
2023-04-15T00:37:06.170Z,97488.16
2023-04-15T00:42:07.850Z,97491.78
2023-04-15T00:47:11.298Z,97496.06
2023-04-15T00:52:13.257Z,97495.58
2023-04-15T00:57:14.874Z,97508.21
2023-04-15T01:02:16.903Z,97509.56
2023-04-15T01:07:19.044Z,97514.56
2023-04-15T01:12:21.142Z,97518.33
2023-04-15T01:17:24.825Z,97524.30
2023-04-15T01:22:27.800Z,97519.52
2023-04-15T01:27:30.251Z,97517.44
2023-04-15T01:32:32.127Z,97517.09
2023-04-15T01:37:34.197Z,97520.70
2023-04-15T01:42:38.918Z,97518.65
2023-04-15T01:47:40.610Z,97518.99
2023-04-15T01:52:44.972Z,97520.02
2023-04-15T01:57:47.395Z,97528.06
2023-04-15T02:02:49.538Z,97527.90
2023-04-15T02:07:52.206Z,97526.02
2023-04-15T02:12:54.269Z,97534.20
2023-04-15T02:17:57.014Z,97543.45
2023-04-15T02:22:58.878Z,97554.38
2023-04-15T02:28:00.792Z,97562.05
2023-04-15T02:33:03.262Z,97569.91
2023-04-15T02:38:05.094Z,97579.28
2023-04-15T02:43:07.430Z,97572.59
2023-04-15T02:48:09.857Z,97581.45
2023-04-15T02:53:11.746Z,97580.71
2023-04-15T02:58:13.649Z,97581.85
2023-04-15T03:03:15.707Z,97586.73
2023-04-15T03:08:17.561Z,97596.06
2023-04-15T03:13:20.461Z,97605.05
2023-04-15T03:18:23.598Z,97605.83
2023-04-15T03:23:25.951Z,97617.48
2023-04-15T03:28:29.634Z,97621.83
2023-04-15T03:33:32.549Z,97624.45
2023-04-15T03:38:34.374Z,97626.91
2023-04-15T03:43:36.034Z,97629.06
2023-04-15T03:48:37.674Z,97634.77
2023-04-15T03:53:39.380Z,97638.70
2023-04-15T03:58:41.062Z,97636.90
2023-04-15T04:07:18.211Z,97645.74
2023-04-15T04:12:20.045Z,97654.65
2023-04-15T04:17:21.868Z,97656.26
2023-04-15T04:22:24.640Z,97655.80
2023-04-15T04:27:26.648Z,97660.67
2023-04-15T04:32:28.319Z,97664.20
2023-04-15T04:37:30.024Z,97672.68
2023-04-15T04:42:31.774Z,97683.03
2023-04-15T04:47:33.402Z,97683.67
2023-04-15T04:52:35.242Z,97694.92
2023-04-15T04:57:37.830Z,97700.77
2023-04-15T05:02:39.918Z,97701.33
2023-04-15T05:07:42.158Z,97694.36
2023-04-15T05:12:44.403Z,97698.10
2023-04-15T05:17:46.133Z,97699.91
2023-04-15T05:22:47.966Z,97709.52
2023-04-15T05:27:49.746Z,97705.55
2023-04-15T05:32:51.913Z,97707.55
2023-04-15T05:37:53.692Z,97705.84
2023-04-15T05:42:55.522Z,97697.95
2023-04-15T05:47:57.228Z,97702.83
2023-04-15T05:52:59.130Z,97710.10
2023-04-15T05:58:00.781Z,97708.42
2023-04-15T06:03:02.582Z,97711.85
2023-04-15T06:08:04.690Z,97720.05
2023-04-15T06:13:06.984Z,97730.28
2023-04-15T06:18:08.701Z,97731.07
2023-04-15T06:23:10.434Z,97732.21
2023-04-15T06:28:12.144Z,97736.08
2023-04-15T06:33:14.052Z,97741.41
2023-04-15T06:38:15.866Z,97747.86
2023-04-15T06:43:17.476Z,97743.06
2023-04-15T06:48:19.221Z,97739.42
2023-04-15T06:53:21.532Z,97740.20
2023-04-15T06:58:23.210Z,97740.11
2023-04-15T07:03:24.953Z,97739.63
2023-04-15T07:08:26.605Z,97740.00
2023-04-15T07:13:30.986Z,97739.11
2023-04-15T07:18:32.643Z,97745.09
2023-04-15T07:23:34.545Z,97748.63
2023-04-15T07:28:36.224Z,97756.38
2023-04-15T07:33:37.899Z,97752.48
2023-04-15T07:38:39.852Z,97752.44
2023-04-15T07:43:41.552Z,97756.79
2023-04-15T07:48:43.403Z,97756.06
2023-04-15T07:53:45.345Z,97755.53
2023-04-15T07:58:47.017Z,97753.26
2023-04-15T08:03:52.969Z,97755.81
2023-04-15T08:08:55.725Z,97756.45
2023-04-15T08:13:57.673Z,97750.68
2023-04-15T08:18:59.813Z,97753.63
2023-04-15T08:24:01.918Z,97760.38
2023-04-15T08:29:03.744Z,97756.19
2023-04-15T08:34:05.771Z,97756.45
2023-04-15T08:39:07.869Z,97756.07
2023-04-15T08:44:10.297Z,97754.08
2023-04-15T08:49:13.313Z,97744.59
2023-04-15T08:54:15.052Z,97741.02
2023-04-15T08:59:17.083Z,97742.81
2023-04-15T09:04:19.082Z,97742.41
2023-04-15T09:09:20.874Z,97743.31
2023-04-15T09:14:23.257Z,97745.02
2023-04-15T09:19:25.396Z,97749.45
2023-04-15T09:24:37.405Z,97749.38
2023-04-15T09:29:41.699Z,97738.48
2023-04-15T09:34:43.548Z,97739.79
2023-04-15T09:39:52.967Z,97734.02
2023-04-15T09:44:55.098Z,97737.13
2023-04-15T09:50:01.104Z,97742.81
2023-04-15T09:55:02.965Z,97745.30
2023-04-15T10:00:11.035Z,97744.51
2023-04-15T10:05:15.832Z,97738.63
2023-04-15T10:10:18.293Z,97740.94
2023-04-15T10:15:21.599Z,97745.42
2023-04-15T10:20:24.447Z,97739.89
2023-04-15T10:25:26.952Z,97739.95
2023-04-15T10:30:29.085Z,97739.31
2023-04-15T10:35:32.909Z,97736.90
2023-04-15T10:40:35.410Z,97738.39
2023-04-15T10:45:37.851Z,97735.52
2023-04-15T10:50:39.876Z,97737.39
2023-04-15T10:55:41.597Z,97735.30
2023-04-15T11:00:52.228Z,97736.66
2023-04-15T11:05:54.349Z,97736.39
2023-04-15T11:10:56.321Z,97737.98
2023-04-15T11:15:59.192Z,97743.77
2023-04-15T11:21:03.694Z,97747.00
2023-04-15T11:26:11.650Z,97753.48
2023-04-15T11:31:16.424Z,97759.88
2023-04-15T11:36:18.400Z,97760.48
2023-04-15T11:41:22.320Z,97765.04
2023-04-15T11:46:30.971Z,97766.77
2023-04-15T11:51:34.545Z,97772.18
2023-04-15T11:56:36.458Z,97776.20
2023-04-15T12:01:47.211Z,97781.55
2023-04-15T12:06:48.935Z,97781.77
2023-04-15T12:11:53.735Z,97777.80
2023-04-15T12:16:59.908Z,97778.52
2023-04-15T12:22:22.208Z,97777.13
2023-04-15T12:27:29.265Z,97774.48
2023-04-15T12:32:35.948Z,97774.84
2023-04-15T12:37:37.709Z,97772.63
2023-04-15T12:42:40.079Z,97771.43
2023-04-15T12:47:41.852Z,97771.92
2023-04-15T12:52:43.594Z,97769.97
2023-04-15T12:57:46.993Z,97766.14
2023-04-15T13:02:49.286Z,97759.88
2023-04-15T13:07:51.241Z,97759.63
2023-04-15T13:12:53.782Z,97757.17
2023-04-15T13:17:55.955Z,97757.73
2023-04-15T13:23:01.011Z,97759.86
2023-04-15T13:28:03.162Z,97763.08
2023-04-15T13:33:05.664Z,97771.67
2023-04-15T13:38:07.395Z,97780.79
2023-04-15T13:43:18.864Z,97788.33
2023-04-15T13:48:20.761Z,97783.27
2023-04-15T13:53:33.870Z,97778.77
2023-04-15T13:58:41.382Z,97780.60
2023-04-15T14:03:43.224Z,97787.80
2023-04-15T14:08:45.460Z,97796.55
2023-04-15T14:13:47.487Z,97803.23
2023-04-15T14:18:49.209Z,97806.81
2023-04-15T14:23:51.083Z,97813.33
2023-04-15T14:28:52.758Z,97817.17
2023-04-15T14:33:54.477Z,97820.85
2023-04-15T14:38:56.213Z,97827.95
2023-04-15T14:43:58.150Z,97833.89
2023-04-15T14:48:59.821Z,97836.78
2023-04-15T14:54:01.961Z,97837.11
2023-04-15T14:59:03.797Z,97839.20
2023-04-15T15:04:06.491Z,97846.45
2023-04-15T15:09:08.582Z,97851.51
2023-04-15T15:14:10.384Z,97855.81
2023-04-15T15:19:12.140Z,97856.10
2023-04-15T15:24:13.862Z,97857.83
2023-04-15T15:29:15.657Z,97868.39
2023-04-15T15:34:17.603Z,97870.06
2023-04-15T15:39:19.299Z,97874.50
2023-04-15T15:44:21.045Z,97873.17
2023-04-15T15:49:22.836Z,97873.96
2023-04-15T15:54:25.375Z,97887.06
2023-04-15T15:59:27.136Z,97916.48
2023-04-15T16:04:29.078Z,97930.76
2023-04-15T16:09:31.767Z,97939.73
2023-04-15T16:14:33.430Z,97941.58
2023-04-15T16:19:35.165Z,97950.59
2023-04-15T16:24:36.889Z,97947.05
2023-04-15T16:29:38.611Z,97939.70
2023-04-15T16:34:41.556Z,97943.94
2023-04-15T16:39:43.330Z,97945.36
2023-04-15T16:44:44.956Z,97946.46
2023-04-15T16:49:47.665Z,97952.61
2023-04-15T16:54:49.323Z,97960.50
2023-04-15T16:59:51.780Z,97974.56
2023-04-15T17:04:53.515Z,97995.13
2023-04-15T17:09:55.331Z,97997.82
2023-04-15T17:14:57.153Z,98005.80
2023-04-15T17:19:58.963Z,98026.99
2023-04-15T17:25:00.755Z,98047.02
2023-04-15T17:30:02.624Z,98051.96
2023-04-15T17:35:06.502Z,98056.41
2023-04-15T17:40:09.087Z,98057.92
2023-04-15T17:45:11.475Z,98065.02
2023-04-15T17:50:13.194Z,98077.30
2023-04-15T17:55:15.220Z,98096.15
2023-04-15T18:00:17.237Z,98115.70
2023-04-15T18:05:19.935Z,98130.13
2023-04-15T18:10:21.964Z,98141.27
2023-04-15T18:15:23.661Z,98143.72
2023-04-15T18:20:25.699Z,98147.34
2023-04-15T18:25:27.570Z,98142.38
2023-04-15T18:30:29.362Z,98152.64
2023-04-15T18:35:31.349Z,98155.38
2023-04-15T18:40:33.001Z,98157.89
2023-04-15T18:45:34.977Z,98158.28
2023-04-15T18:50:37.160Z,98163.54
2023-04-15T18:55:39.991Z,98168.63
2023-04-15T19:00:43.813Z,98171.00
2023-04-15T19:05:45.765Z,98177.75
2023-04-15T19:10:47.699Z,98185.89
2023-04-15T19:15:49.384Z,98193.25
2023-04-15T19:20:52.968Z,98201.20
2023-04-15T19:25:54.689Z,98212.21
2023-04-15T19:30:58.018Z,98219.80
2023-04-15T19:36:05.564Z,98229.29
2023-04-15T19:41:09.144Z,98232.10
2023-04-15T19:46:13.343Z,98214.48
2023-04-15T19:51:17.897Z,98207.17
2023-04-15T19:56:20.701Z,98213.52
2023-04-15T20:01:23.163Z,98216.11
2023-04-15T20:06:25.086Z,98213.83
2023-04-15T20:12:06.100Z,98221.46
2023-04-15T20:16:51.119Z,98219.77
2023-04-15T20:21:54.083Z,98220.42
2023-04-15T20:26:57.543Z,98222.11
2023-04-15T20:31:59.266Z,98231.89
2023-04-15T20:37:01.534Z,98234.68
2023-04-15T20:42:03.469Z,98231.90
2023-04-15T20:47:06.371Z,98237.09
2023-04-15T20:52:08.979Z,98237.02
2023-04-15T20:57:10.652Z,98238.25
2023-04-15T21:02:12.493Z,98244.80
2023-04-15T21:07:14.836Z,98254.48
2023-04-15T21:12:16.730Z,98262.04
2023-04-15T21:17:19.615Z,98265.86
2023-04-15T21:22:21.517Z,98271.39
2023-04-15T21:27:23.233Z,98275.96
2023-04-15T21:32:26.303Z,98284.14
2023-04-15T21:37:27.922Z,98291.66
2023-04-15T21:42:30.217Z,98304.65
2023-04-15T21:48:00.892Z,98301.54
2023-04-15T21:53:08.130Z,98306.39
2023-04-15T21:58:09.870Z,98311.64
2023-04-15T22:03:12.127Z,98317.45
2023-04-15T22:08:14.163Z,98321.98
2023-04-15T22:13:16.858Z,98329.06
2023-04-15T22:18:18.525Z,98338.59
2023-04-15T22:23:20.841Z,98340.06
2023-04-15T22:28:22.536Z,98343.23
2023-04-15T22:33:24.333Z,98350.20
2023-04-15T22:38:26.043Z,98356.17
2023-04-15T22:43:27.917Z,98357.85
2023-04-15T22:48:29.651Z,98364.41
2023-04-15T22:53:31.489Z,98370.91
2023-04-15T22:58:33.219Z,98379.85
2023-04-15T23:03:35.072Z,98385.67
2023-04-15T23:08:59.188Z,98395.25
2023-04-15T23:14:29.103Z,98396.98
2023-04-15T23:19:30.837Z,98391.52
2023-04-15T23:24:32.686Z,98399.76
2023-04-15T23:29:34.400Z,98402.20
2023-04-15T23:34:37.617Z,98402.56
2023-04-15T23:39:42.189Z,98407.90
2023-04-15T23:44:44.945Z,98417.13
2023-04-15T23:49:52.772Z,98418.08
2023-04-15T23:54:54.526Z,98424.88
2023-04-15T23:59:56.572Z,98430.65
